createdAt,value
2018-07-01T00:01:02.201Z,46.88
2018-07-01T00:03:38.126Z,46.93
2018-07-01T00:06:15.223Z,47.09
2018-07-01T00:08:52.089Z,47.36
2018-07-01T00:11:29.558Z,47.28
2018-07-01T00:14:05.182Z,47.28
2018-07-01T00:16:42.068Z,47.54
2018-07-01T00:19:17.980Z,48.07
2018-07-01T00:21:53.709Z,48.27
2018-07-01T00:24:29.163Z,47.80
2018-07-01T00:27:05.418Z,48.38
2018-07-01T00:29:41.608Z,48.65
2018-07-01T00:32:17.384Z,49.10
2018-07-01T00:34:54.996Z,48.92
2018-07-01T00:37:30.610Z,49.16
2018-07-01T00:40:06.693Z,49.74
2018-07-01T00:42:42.474Z,49.13
2018-07-01T00:45:18.947Z,50.21
2018-07-01T00:47:54.493Z,49.42
2018-07-01T00:50:29.957Z,49.56
2018-07-01T00:53:06.084Z,49.73
2018-07-01T00:55:42.616Z,49.99
2018-07-01T00:58:18.433Z,49.53
2018-07-01T01:00:55.023Z,50.71
2018-07-01T01:03:31.030Z,51.06
2018-07-01T01:06:07.967Z,50.22
2018-07-01T01:08:43.415Z,50.77
2018-07-01T01:11:18.954Z,51.51
2018-07-01T01:13:55.016Z,52.11
2018-07-01T01:16:32.153Z,51.88
2018-07-01T01:19:09.359Z,51.98
2018-07-01T01:21:46.057Z,53.27
2018-07-01T01:24:22.182Z,53.86
2018-07-01T01:26:57.525Z,54.53
2018-07-01T01:29:34.064Z,55.77
2018-07-01T01:32:09.747Z,56.75
2018-07-01T01:34:46.231Z,56.62
2018-07-01T01:37:22.093Z,57.71
2018-07-01T01:39:57.894Z,58.26
2018-07-01T01:42:43.081Z,58.21
2018-07-01T01:45:38.565Z,57.53
2018-07-01T01:48:19.437Z,57.31
2018-07-01T01:51:03.479Z,56.97
2018-07-01T01:53:48.784Z,57.64
2018-07-01T01:56:33.955Z,58.47
2018-07-01T01:59:14.367Z,59.36
2018-07-01T02:01:59.619Z,60.22
2018-07-01T02:05:10.793Z,60.82
2018-07-01T02:07:51.459Z,61.15
2018-07-01T02:10:28.176Z,61.74
2018-07-01T02:13:04.619Z,61.78
2018-07-01T02:15:44.285Z,61.94
2018-07-01T02:18:20.817Z,62.77
2018-07-01T02:20:57.127Z,63.76
2018-07-01T02:23:39.169Z,64.34
2018-07-01T02:26:16.500Z,63.81
2018-07-01T02:28:53.592Z,63.67
2018-07-01T02:31:29.186Z,64.90
2018-07-01T02:34:05.094Z,64.76
2018-07-01T02:36:40.598Z,65.12
2018-07-01T02:39:16.795Z,65.26
2018-07-01T02:41:53.091Z,65.41
2018-07-01T02:44:30.413Z,65.70
2018-07-01T02:47:07.850Z,66.20
2018-07-01T02:49:44.417Z,67.13
2018-07-01T02:52:20.214Z,67.21
2018-07-01T02:54:56.737Z,67.37
2018-07-01T02:57:32.566Z,67.29
2018-07-01T03:00:09.477Z,67.85
2018-07-01T03:02:45.622Z,67.48
2018-07-01T03:05:22.509Z,68.24
2018-07-01T03:07:59.111Z,68.87
2018-07-01T03:10:35.369Z,68.64
2018-07-01T03:13:11.849Z,69.68
2018-07-01T03:15:48.190Z,69.27
2018-07-01T03:18:25.742Z,69.51
2018-07-01T03:21:01.875Z,69.10
2018-07-01T03:23:37.315Z,68.08
2018-07-01T03:26:12.628Z,67.57
2018-07-01T03:28:48.488Z,68.58
2018-07-01T03:31:25.060Z,69.54
2018-07-01T03:34:01.488Z,69.83
2018-07-01T03:36:38.048Z,68.87
2018-07-01T03:39:14.002Z,67.88
2018-07-01T03:41:50.791Z,68.62
2018-07-01T03:44:26.438Z,69.60
2018-07-01T03:47:03.410Z,69.61
2018-07-01T03:49:39.083Z,69.70
2018-07-01T03:52:14.854Z,70.35
2018-07-01T03:54:51.093Z,70.79
2018-07-01T03:57:26.793Z,69.86
2018-07-01T04:00:02.448Z,69.67
2018-07-01T04:02:38.759Z,68.92
2018-07-01T04:05:15.177Z,68.60
2018-07-01T04:07:51.206Z,67.91
2018-07-01T04:10:26.928Z,67.58
2018-07-01T04:13:03.372Z,66.24
2018-07-01T04:15:40.233Z,66.41
2018-07-01T04:18:17.267Z,65.88
2018-07-01T04:20:53.129Z,62.94
2018-07-01T04:23:30.284Z,61.95
2018-07-01T04:26:05.854Z,61.72
2018-07-01T04:28:41.870Z,60.32
2018-07-01T04:31:19.140Z,59.74
2018-07-01T04:33:56.238Z,58.48
2018-07-01T04:36:31.995Z,58.01
2018-07-01T04:39:08.893Z,57.00
2018-07-01T04:41:45.463Z,56.12
2018-07-01T04:44:21.233Z,55.34
2018-07-01T04:46:57.560Z,54.92
2018-07-01T04:49:33.802Z,54.83
2018-07-01T04:52:10.009Z,54.69
2018-07-01T04:54:46.565Z,54.20
2018-07-01T04:57:23.021Z,54.55
2018-07-01T04:59:59.831Z,53.30
2018-07-01T05:02:35.725Z,53.10
2018-07-01T05:05:12.315Z,53.53
2018-07-01T05:07:48.029Z,52.23
2018-07-01T05:10:23.805Z,53.07
2018-07-01T05:13:01.149Z,51.49
2018-07-01T05:15:37.273Z,51.10
2018-07-01T05:18:13.833Z,50.47
2018-07-01T05:20:49.315Z,50.24
2018-07-01T05:23:25.133Z,50.54
2018-07-01T05:26:00.713Z,50.53
2018-07-01T05:28:36.561Z,49.58
2018-07-01T05:31:12.965Z,49.54
2018-07-01T05:33:48.989Z,49.23
2018-07-01T05:36:24.821Z,49.39
2018-07-01T05:39:02.152Z,48.94
2018-07-01T05:41:40.127Z,49.12
2018-07-01T05:44:16.055Z,48.42
2018-07-01T05:46:51.455Z,47.97
2018-07-01T05:49:27.693Z,47.56
2018-07-01T05:52:03.342Z,47.68
2018-07-01T05:54:38.851Z,46.92
2018-07-01T05:57:15.029Z,46.41
2018-07-01T05:59:51.570Z,45.80
2018-07-01T06:02:27.179Z,45.47
2018-07-01T06:05:03.623Z,45.18
2018-07-01T06:07:39.157Z,44.59
2018-07-01T06:10:15.825Z,44.30
2018-07-01T06:12:51.645Z,44.59
2018-07-01T06:15:28.145Z,43.78
2018-07-01T06:18:04.367Z,43.92
2018-07-01T06:20:41.349Z,43.21
2018-07-01T06:23:17.460Z,43.10
2018-07-01T06:25:53.288Z,42.76
2018-07-01T06:28:30.169Z,42.30
2018-07-01T06:31:06.308Z,42.84
2018-07-01T06:33:43.159Z,40.75
2018-07-01T06:36:21.568Z,40.81
2018-07-01T06:38:57.899Z,40.66
2018-07-01T06:41:35.032Z,41.50
2018-07-01T06:44:12.334Z,40.74
2018-07-01T06:46:48.989Z,40.92
2018-07-01T06:49:24.578Z,40.65
2018-07-01T06:52:02.089Z,40.07
2018-07-01T06:54:38.644Z,40.56
2018-07-01T06:57:14.732Z,40.11
2018-07-01T06:59:51.674Z,39.34
2018-07-01T07:02:29.106Z,38.91
2018-07-01T07:05:05.467Z,37.84
2018-07-01T07:07:43.125Z,37.73
2018-07-01T07:10:20.544Z,37.22
2018-07-01T07:12:56.318Z,38.15
2018-07-01T07:15:32.875Z,37.79
2018-07-01T07:18:09.744Z,37.06
2018-07-01T07:20:46.326Z,37.55
2018-07-01T07:23:22.176Z,37.39
2018-07-01T07:25:58.014Z,36.68
2018-07-01T07:28:35.114Z,36.42
2018-07-01T07:31:11.694Z,35.89
2018-07-01T07:33:47.658Z,33.98
2018-07-01T07:36:24.026Z,33.50
2018-07-01T07:39:00.148Z,32.72
2018-07-01T07:41:35.808Z,34.13
2018-07-01T07:44:12.358Z,32.95
2018-07-01T07:46:49.348Z,30.76
2018-07-01T07:49:29.780Z,30.49
2018-07-01T07:52:05.919Z,31.50
2018-07-01T07:54:42.324Z,30.03
2018-07-01T07:57:25.302Z,30.75
2018-07-01T08:00:01.336Z,30.69
2018-07-01T08:02:37.992Z,31.04
2018-07-01T08:05:14.586Z,30.31
2018-07-01T08:07:50.846Z,28.57
2018-07-01T08:10:29.936Z,28.39
2018-07-01T08:13:06.270Z,28.71
2018-07-01T08:15:42.973Z,27.58
2018-07-01T08:18:19.638Z,27.31
2018-07-01T08:20:55.885Z,27.15
2018-07-01T08:23:32.913Z,27.28
2018-07-01T08:26:30.670Z,26.47
2018-07-01T08:29:10.257Z,26.89
2018-07-01T08:32:28.611Z,26.92
2018-07-01T08:38:27.223Z,25.99
2018-07-01T08:41:17.739Z,25.97
2018-07-01T08:43:55.510Z,27.41
2018-07-01T08:46:42.993Z,27.38
2018-07-01T08:59:26.609Z,25.27
2018-07-01T09:05:32.986Z,24.98
2018-07-01T09:08:37.119Z,23.47
2018-07-01T09:11:13.143Z,23.99
2018-07-01T09:13:57.952Z,24.41
2018-07-01T09:32:46.396Z,22.74
2018-07-01T09:35:35.658Z,21.59
2018-07-01T10:20:34.023Z,18.10
2018-07-01T10:23:29.723Z,19.52
2018-07-01T10:26:27.658Z,18.97
2018-07-01T10:29:39.476Z,17.28
2018-07-01T10:32:27.614Z,19.86
2018-07-01T10:35:16.319Z,18.85
2018-07-01T10:38:46.893Z,18.82
2018-07-01T10:44:48.755Z,18.72
2018-07-01T10:47:43.708Z,17.73
2018-07-01T10:50:21.498Z,18.40
2018-07-01T10:52:59.198Z,17.76
2018-07-01T10:55:36.359Z,18.62
2018-07-01T10:58:18.925Z,18.26
2018-07-01T11:06:33.348Z,17.98
2018-07-01T11:09:15.999Z,16.11
2018-07-01T11:11:52.252Z,16.33
2018-07-01T11:14:42.424Z,15.08
2018-07-01T11:17:44.526Z,14.58
2018-07-01T11:20:34.431Z,14.93
2018-07-01T11:23:21.043Z,15.96
2018-07-01T11:29:02.651Z,15.19
2018-07-01T11:31:48.179Z,15.56
2018-07-01T11:34:25.749Z,16.75
2018-07-01T11:40:12.392Z,15.75
2018-07-01T11:42:56.813Z,14.87
2018-07-01T11:51:17.552Z,14.04
2018-07-01T11:54:06.984Z,14.88
2018-07-01T11:56:45.706Z,15.64
2018-07-01T11:59:40.991Z,14.16
2018-07-01T12:02:33.102Z,14.35
2018-07-01T12:05:16.663Z,14.51
2018-07-01T12:07:48.650Z,13.69
2018-07-01T12:10:32.190Z,13.99
2018-07-01T12:13:27.516Z,15.04
2018-07-01T12:16:17.325Z,13.35
2018-07-01T12:18:56.079Z,13.91
2018-07-01T12:21:39.512Z,14.52
2018-07-01T12:24:35.490Z,13.28
2018-07-01T12:27:22.082Z,14.05
2018-07-01T12:33:04.992Z,13.60
2018-07-01T12:35:56.135Z,12.20
2018-07-01T12:38:40.620Z,11.79
2018-07-01T12:44:38.433Z,13.44
2018-07-01T12:47:23.371Z,12.66
2018-07-01T12:50:10.405Z,14.37
2018-07-01T12:52:48.584Z,15.16
2018-07-01T12:55:30.791Z,12.62
2018-07-01T12:58:11.377Z,12.89
2018-07-01T13:00:57.751Z,11.95
2018-07-01T13:03:36.413Z,13.35
2018-07-01T13:06:15.162Z,13.53
2018-07-01T13:08:56.508Z,12.62
2018-07-01T13:11:51.762Z,11.63
2018-07-01T13:14:33.107Z,12.01
2018-07-01T13:17:13.291Z,12.44
2018-07-01T13:19:51.769Z,14.59
2018-07-01T13:22:33.489Z,12.68
2018-07-01T13:25:18.684Z,12.24
2018-07-01T13:27:59.732Z,12.08
2018-07-01T13:30:37.343Z,15.28
2018-07-01T13:33:13.596Z,15.89
2018-07-01T13:35:55.980Z,13.48
2018-07-01T13:38:35.736Z,11.81
2018-07-01T13:41:18.077Z,12.42
2018-07-01T13:43:58.840Z,12.92
2018-07-01T13:46:34.781Z,11.37
2018-07-01T13:49:10.722Z,11.59
2018-07-01T13:51:46.644Z,12.43
2018-07-01T13:54:23.761Z,11.74
2018-07-01T13:57:03.743Z,11.73
2018-07-01T13:59:39.938Z,11.51
2018-07-01T14:02:16.136Z,11.16
2018-07-01T14:04:53.959Z,13.29
2018-07-01T14:07:43.623Z,10.83
2018-07-01T14:10:19.693Z,11.59
2018-07-01T14:15:55.683Z,10.13
2018-07-01T14:18:32.915Z,9.24
2018-07-01T14:21:13.706Z,9.68
2018-07-01T14:23:54.623Z,12.56
2018-07-01T14:26:44.646Z,12.28
2018-07-01T14:29:34.545Z,11.16
2018-07-01T14:32:27.233Z,12.52
2018-07-01T14:35:07.515Z,13.08
2018-07-01T14:37:45.500Z,10.00
2018-07-01T14:40:27.209Z,11.52
2018-07-01T14:43:09.854Z,10.36
2018-07-01T14:48:55.487Z,11.75
2018-07-01T14:51:43.673Z,14.48
2018-07-01T14:54:37.710Z,12.73
2018-07-01T14:57:17.320Z,13.72
2018-07-01T14:59:59.653Z,12.69
2018-07-01T15:02:48.459Z,11.34
2018-07-01T15:05:30.276Z,12.56
2018-07-01T15:08:13.630Z,14.42
2018-07-01T15:13:49.508Z,11.77
2018-07-01T15:16:33.828Z,12.39
2018-07-01T15:19:13.087Z,12.23
2018-07-01T15:22:00.165Z,14.51
2018-07-01T15:24:46.844Z,12.83
2018-07-01T15:27:29.122Z,11.02
2018-07-01T15:30:13.365Z,12.16
2018-07-01T15:32:54.997Z,10.61
2018-07-01T15:35:36.271Z,12.88
2018-07-01T15:38:20.455Z,11.86
2018-07-01T15:41:15.500Z,10.82
2018-07-01T15:44:07.698Z,10.78
2018-07-01T15:46:44.292Z,10.00
2018-07-01T15:49:20.825Z,11.69
2018-07-01T15:51:58.922Z,12.62
2018-07-01T15:54:35.743Z,14.26
2018-07-01T15:57:11.441Z,13.18
2018-07-01T15:59:48.327Z,11.74
2018-07-01T16:02:30.094Z,13.15
2018-07-01T16:05:07.922Z,13.78
2018-07-01T16:07:43.918Z,13.74
2018-07-01T16:10:24.324Z,13.01
2018-07-01T16:13:04.863Z,14.13
2018-07-01T16:15:55.847Z,13.38
2018-07-01T16:21:32.695Z,14.36
2018-07-01T16:24:10.277Z,12.63
2018-07-01T16:28:04.520Z,13.09
2018-07-01T16:33:34.315Z,15.27
2018-07-01T16:39:34.885Z,17.52
2018-07-01T16:42:11.596Z,16.11
2018-07-01T16:45:11.626Z,15.09
2018-07-01T16:48:02.978Z,16.47
2018-07-01T16:50:41.890Z,17.07
2018-07-01T16:53:17.579Z,16.12
2018-07-01T16:55:53.277Z,15.69
2018-07-01T16:58:33.359Z,15.62
2018-07-01T17:01:12.829Z,15.36
2018-07-01T17:03:49.005Z,15.78
2018-07-01T17:06:29.389Z,15.51
2018-07-01T17:09:15.032Z,16.00
2018-07-01T17:11:51.702Z,17.90
2018-07-01T17:14:33.680Z,17.68
2018-07-01T17:17:14.978Z,20.16
2018-07-01T17:19:57.974Z,23.57
2018-07-01T17:22:34.081Z,24.23
2018-07-01T17:25:09.581Z,24.92
2018-07-01T17:27:45.952Z,24.53
2018-07-01T17:30:22.644Z,24.86
2018-07-01T17:33:34.726Z,24.73
2018-07-01T17:36:10.846Z,25.75
2018-07-01T17:38:50.946Z,24.81
2018-07-01T17:41:27.571Z,25.20
2018-07-01T17:44:03.456Z,25.60
2018-07-01T17:46:39.975Z,25.75
2018-07-01T17:49:16.549Z,26.05
2018-07-01T17:51:52.881Z,26.63
2018-07-01T17:54:31.356Z,26.21
2018-07-01T17:57:07.485Z,27.07
2018-07-01T17:59:43.771Z,26.73
2018-07-01T18:02:20.324Z,26.36
2018-07-01T18:04:56.887Z,26.18
2018-07-01T18:13:24.446Z,27.30
2018-07-01T18:24:35.141Z,27.73
2018-07-01T18:27:12.631Z,27.43
2018-07-01T18:30:05.031Z,28.57
2018-07-01T18:32:48.079Z,28.26
2018-07-01T18:35:36.149Z,28.81
2018-07-01T18:41:32.553Z,29.29
2018-07-01T18:44:24.081Z,28.84
2018-07-01T18:47:17.810Z,29.96
2018-07-01T18:50:15.344Z,29.72
2018-07-01T18:53:28.233Z,29.81
2018-07-01T18:56:34.195Z,29.99
2018-07-01T19:02:19.995Z,30.32
2018-07-01T19:05:18.773Z,30.41
2018-07-01T19:17:18.815Z,31.35
2018-07-01T19:20:11.055Z,32.59
2018-07-01T19:23:03.850Z,32.32
2018-07-01T19:25:40.310Z,32.88
2018-07-01T19:28:19.455Z,33.46
2018-07-01T19:31:07.721Z,33.35
2018-07-01T19:33:46.909Z,32.97
2018-07-01T19:36:33.145Z,33.77
2018-07-01T19:39:20.406Z,34.21
2018-07-01T19:41:59.638Z,34.67
2018-07-01T19:44:35.920Z,34.91
2018-07-01T19:47:14.344Z,34.85
2018-07-01T19:49:49.858Z,35.12
2018-07-01T19:52:25.552Z,35.66
2018-07-01T19:55:02.880Z,35.45
2018-07-01T19:57:39.865Z,36.25
2018-07-01T20:00:16.391Z,36.17
2018-07-01T20:02:59.468Z,36.10
2018-07-01T20:05:41.619Z,35.67
2018-07-01T20:08:19.533Z,36.42
2018-07-01T20:10:57.146Z,36.83
2018-07-01T20:13:33.342Z,36.89
2018-07-01T20:16:09.452Z,38.17
2018-07-01T20:18:46.827Z,36.36
2018-07-01T20:21:24.036Z,37.42
2018-07-01T20:27:18.314Z,36.91
2018-07-01T20:29:55.675Z,37.38
2018-07-01T20:32:33.120Z,37.93
2018-07-01T20:35:08.965Z,37.52
2018-07-01T20:37:45.228Z,38.64
2018-07-01T20:40:22.722Z,37.83
2018-07-01T20:42:59.617Z,37.80
2018-07-01T20:45:41.080Z,38.54
2018-07-01T20:48:20.824Z,37.58
2018-07-01T20:50:58.206Z,38.27
2018-07-01T20:53:39.028Z,38.33
2018-07-01T20:56:18.442Z,39.68
2018-07-01T20:59:06.442Z,40.03
2018-07-01T21:01:48.868Z,40.31
2018-07-01T21:04:30.321Z,40.20
2018-07-01T21:07:09.142Z,39.91
2018-07-01T21:09:51.353Z,39.61
2018-07-01T21:12:33.244Z,38.70
2018-07-01T21:15:17.365Z,39.41
2018-07-01T21:18:01.906Z,39.82
2018-07-01T21:20:48.518Z,40.15
2018-07-01T21:23:36.084Z,40.82
2018-07-01T21:26:12.545Z,40.70
2018-07-01T21:28:54.160Z,40.70
2018-07-01T21:31:52.479Z,40.38
2018-07-01T21:34:40.295Z,40.17
2018-07-01T21:37:25.276Z,40.39
2018-07-01T21:40:08.177Z,40.67
2018-07-01T21:42:51.203Z,41.28
2018-07-01T21:45:34.498Z,41.58
2018-07-01T21:48:18.388Z,41.54
2018-07-01T21:51:04.721Z,42.54
2018-07-01T21:53:48.847Z,42.53
2018-07-01T21:59:22.811Z,42.24
2018-07-01T22:02:07.555Z,43.13
2018-07-01T22:04:46.968Z,43.07
2018-07-01T22:07:23.520Z,42.64
2018-07-01T22:10:00.518Z,42.55
2018-07-01T22:12:47.344Z,42.50
2018-07-01T22:15:34.760Z,43.02
2018-07-01T22:18:12.252Z,43.27
2018-07-01T22:20:48.015Z,42.72
2018-07-01T22:23:24.166Z,43.49
2018-07-01T22:25:59.959Z,43.37
2018-07-01T22:28:38.575Z,42.74
2018-07-01T22:31:14.967Z,43.57
2018-07-01T22:33:51.502Z,42.98
2018-07-01T22:36:27.993Z,43.64
2018-07-01T22:39:05.107Z,43.62
2018-07-01T22:41:41.230Z,42.85
2018-07-01T22:44:17.177Z,43.85
2018-07-01T22:46:53.698Z,44.12
2018-07-01T22:49:30.414Z,44.25
2018-07-01T22:52:06.261Z,43.87
2018-07-01T22:54:41.967Z,43.77
2018-07-01T22:57:18.051Z,44.71
2018-07-01T22:59:54.496Z,44.99
2018-07-01T23:02:51.966Z,45.20
2018-07-01T23:05:27.696Z,46.06
2018-07-01T23:08:03.484Z,46.29
2018-07-01T23:10:40.062Z,45.94
2018-07-01T23:13:15.988Z,45.75
2018-07-01T23:15:53.062Z,46.32
2018-07-01T23:18:29.120Z,46.04
2018-07-01T23:21:05.485Z,46.74
2018-07-01T23:23:41.515Z,46.84
2018-07-01T23:26:17.625Z,47.29
2018-07-01T23:28:53.394Z,47.29
2018-07-01T23:31:29.887Z,46.93
2018-07-01T23:34:05.636Z,47.78
2018-07-01T23:36:42.408Z,47.64
2018-07-01T23:39:19.133Z,48.65
2018-07-01T23:41:54.980Z,48.63
2018-07-01T23:44:30.686Z,48.90
2018-07-01T23:47:06.683Z,48.76
2018-07-01T23:49:42.327Z,49.32
2018-07-01T23:52:18.923Z,49.82
2018-07-01T23:54:55.569Z,49.37
2018-07-01T23:57:33.678Z,49.65
